Winthrop, MA

10:05 AM EST on January 18, 2017 (GMT -0500)
Logan International | | Change Station
Active Advisory: Small Craft Advisory Active Notice: Public Information Statement

Elev 16 ft 42.36 °N, 71.00 °W | Updated 11 minutes ago

Rain
Rain
39 °F
Feels Like 30 °F
N
16
Wind Variable Wind from ENE

Today
High -- | Low -- °F
--% Chance of Precip.
Yesterday
High -- | Low -- °F
Precip. -- in
Pressure 30.00 in
Visibility 1.5 miles
Clouds Scattered Clouds 800 ft
Overcast 1400 ft
Windchill 30 °F
Dew Point 39 °F
Humidity 100%
Rainfall 0.51 in
Snow Depth Not available.
7:08 AM 4:40 PM
Waning Gibbous, 62% visible
METAR KBOS 181454Z 06014KT 1 1/2SM -RA BR SCT008 OVC014 04/04 A3000 RMK AO2 CIG 007 E SLP158 P0002 60002 T00390039 50003
Pressure 30.00 in
Visibility 1.5 miles
Clouds Scattered Clouds 800 ft
Overcast 1400 ft
Windchill 30 °F
Dew Point 39 °F
Humidity 100%
Rainfall 0.51 in
Snow Depth Not available.
7:08 AM 4:40 PM
Waning Gibbous, 62% visible
METAR KBOS 181454Z 06014KT 1 1/2SM -RA BR SCT008 OVC014 04/04 A3000 RMK AO2 CIG 007 E SLP158 P0002 60002 T00390039 50003

Get Your Daily Forecast Email!

Thanks for signing up!

Be on the lookout for a verification email in your inbox.

You'll start receiving the daily forecast at 8 AM.

×

10-Day Weather Forecast

Almanac

Astronomy

Jan. 18, 2017 Rise Set
Actual Time
Civil Twilight
Nautical Twilight
Astronomical Twilight
Moon
Length of Visible Light
Length of Day
Tomorrow will be .
, % of the Moon is Illuminated

Today's Extremes

State Highs State Lows

Community

WunderPhotos

Upload Photos

1,962,540 photos uploaded!

WunderBlog® & News

Nearby

Air Quality

  Air Quality AQ Index Pollutant
Not available.

Snow Depth

Station Depth Elevation

Earthquake Activity

City Distance Mag. Time & Date
Minimum magnitude displayed is 2.5.

Coastal Water Temperatures

Place Temperature

Stations

Nearby Weather Stations

Station Location Temp. Windchill Dew Point Humidity Wind Precip. Elev Updated Type
                   

Watches & Warnings

Small Craft Advisory
Issued: 3:54 AM EST Jan. 18, 2017 – National Weather Service

... Small Craft Advisory until 7 PM EST this evening...

* winds and seas... east winds 15 to 20 kt with gusts up to 25 kt.
Seas 1 to 3 feet.

Precautionary/preparedness actions...

A Small Craft Advisory means that wind speeds of 25 to 33 knots
are expected to produce hazardous wave conditions to small craft.
Inexperienced mariners... especially those operating smaller
vessels should avoid navigating in these conditions.



For the latest updates... please visit our webpage at
www.Weather.Gov/Boston

You can follow US on facebook at
www.Facebook.Com/nwsboston